createdAt,value
2022-12-11T00:00:11.840Z,26.80
2022-12-11T00:02:38.647Z,25.53
2022-12-11T00:05:05.797Z,26.00
2022-12-11T00:07:32.548Z,24.93
2022-12-11T00:09:59.489Z,27.23
2022-12-11T00:12:26.313Z,25.57
2022-12-11T00:14:53.325Z,25.97
2022-12-11T00:17:20.157Z,25.13
2022-12-11T00:19:46.893Z,28.30
2022-12-11T00:22:13.690Z,25.73
2022-12-11T00:24:40.535Z,28.53
2022-12-11T00:27:07.956Z,26.10
2022-12-11T00:29:34.796Z,24.77
2022-12-11T00:32:01.792Z,25.93
2022-12-11T00:34:28.654Z,25.37
2022-12-11T00:36:55.451Z,24.30
2022-12-11T00:39:22.171Z,25.43
2022-12-11T00:41:48.909Z,24.37
2022-12-11T00:44:15.741Z,25.77
2022-12-11T00:46:42.539Z,23.97
2022-12-11T00:49:09.328Z,26.93
2022-12-11T00:51:36.135Z,25.43
2022-12-11T00:54:03.928Z,27.23
2022-12-11T00:56:30.976Z,27.23
2022-12-11T00:58:57.709Z,26.13
2022-12-11T01:01:25.750Z,26.63
2022-12-11T01:03:52.936Z,26.07
2022-12-11T01:06:23.615Z,28.00
2022-12-11T01:09:10.468Z,28.13
2022-12-11T01:11:37.470Z,26.30
2022-12-11T01:14:04.550Z,27.23
2022-12-11T01:16:31.492Z,27.37
2022-12-11T01:18:58.540Z,26.93
2022-12-11T01:21:25.442Z,26.77
2022-12-11T01:23:52.408Z,26.27
2022-12-11T01:26:19.358Z,26.00
2022-12-11T01:28:50.172Z,24.60
2022-12-11T01:31:18.543Z,27.07
2022-12-11T01:33:45.729Z,26.03
2022-12-11T01:36:15.429Z,26.20
2022-12-11T01:38:43.938Z,25.27
2022-12-11T01:41:11.449Z,24.60
2022-12-11T01:44:03.105Z,27.27
2022-12-11T01:46:31.631Z,24.97
2022-12-11T01:49:00.658Z,24.80
2022-12-11T01:51:30.686Z,23.87
2022-12-11T01:54:06.475Z,24.90
2022-12-11T01:56:36.063Z,25.57
2022-12-11T01:59:07.446Z,24.20
2022-12-11T02:01:47.849Z,24.80
2022-12-11T02:04:15.219Z,27.13
2022-12-11T02:06:45.178Z,27.73
2022-12-11T02:09:21.837Z,23.33
2022-12-11T02:12:03.988Z,23.60
2022-12-11T02:14:36.407Z,24.70
2022-12-11T02:17:13.238Z,25.10
2022-12-11T02:19:46.036Z,25.03
2022-12-11T02:22:27.573Z,23.47
2022-12-11T02:25:13.087Z,23.33
2022-12-11T02:27:49.338Z,23.93
2022-12-11T02:30:17.365Z,22.97
2022-12-11T02:32:51.912Z,23.40
2022-12-11T02:35:21.938Z,23.40
2022-12-11T02:37:55.224Z,21.83
2022-12-11T02:40:26.458Z,20.67
2022-12-11T02:42:57.746Z,20.43
2022-12-11T02:45:26.425Z,21.03
2022-12-11T02:47:53.421Z,21.50
2022-12-11T02:50:23.445Z,21.03
2022-12-11T02:52:54.030Z,21.43
2022-12-11T02:55:20.975Z,21.43
2022-12-11T02:57:52.839Z,22.50
2022-12-11T03:00:19.693Z,25.20
2022-12-11T03:02:46.780Z,23.37
2022-12-11T03:05:15.407Z,24.50
2022-12-11T03:07:43.834Z,24.30
2022-12-11T03:10:14.635Z,25.17
2022-12-11T03:12:45.428Z,23.20
2022-12-11T03:15:16.893Z,24.33
2022-12-11T03:18:08.505Z,23.53
2022-12-11T03:20:45.329Z,22.83
2022-12-11T03:23:30.629Z,24.57
2022-12-11T03:26:02.351Z,25.47
2022-12-11T03:28:50.788Z,21.47
2022-12-11T03:31:45.598Z,23.57
2022-12-11T03:34:41.472Z,24.70
2022-12-11T03:37:10.479Z,23.50
2022-12-11T03:39:42.354Z,24.83
2022-12-11T03:42:12.603Z,21.93
2022-12-11T03:44:40.675Z,23.50
2022-12-11T03:47:08.962Z,25.97
2022-12-11T03:49:40.030Z,24.50
2022-12-11T03:52:09.052Z,25.10
2022-12-11T03:54:36.619Z,24.63
2022-12-11T03:57:05.884Z,23.77
2022-12-11T03:59:32.635Z,21.60
2022-12-11T04:01:59.475Z,24.50
2022-12-11T04:04:26.286Z,24.70
2022-12-11T04:06:53.053Z,25.33
2022-12-11T04:09:19.849Z,23.57
2022-12-11T04:11:46.675Z,22.90
2022-12-11T04:14:33.056Z,25.20
2022-12-11T04:17:01.073Z,24.30
2022-12-11T04:19:46.589Z,24.27
2022-12-11T04:22:34.119Z,23.47
2022-12-11T04:25:02.178Z,22.47
2022-12-11T04:27:47.753Z,22.03
2022-12-11T04:30:20.228Z,22.63
2022-12-11T04:32:47.100Z,20.30
2022-12-11T04:35:14.521Z,21.23
2022-12-11T04:37:41.784Z,20.13
2022-12-11T04:40:11.749Z,22.77
2022-12-11T04:42:38.512Z,21.90
2022-12-11T04:45:08.256Z,20.53
2022-12-11T04:47:39.399Z,19.50
2022-12-11T04:50:08.203Z,21.90
2022-12-11T04:52:34.985Z,18.83
2022-12-11T04:55:03.013Z,17.33
2022-12-11T04:57:29.725Z,19.93
2022-12-11T04:59:58.855Z,17.40
2022-12-11T05:02:26.811Z,18.03
2022-12-11T05:04:53.618Z,18.07
2022-12-11T05:07:20.395Z,18.47
2022-12-11T05:09:47.096Z,18.53
2022-12-11T05:12:13.839Z,18.57
2022-12-11T05:14:40.592Z,18.90
2022-12-11T05:17:07.265Z,18.00
2022-12-11T05:19:33.994Z,18.97
2022-12-11T05:22:00.638Z,17.47
2022-12-11T05:24:27.409Z,17.13
2022-12-11T05:26:54.116Z,18.20
2022-12-11T05:29:20.820Z,16.20
2022-12-11T05:31:47.596Z,17.50
2022-12-11T05:34:15.880Z,18.23
2022-12-11T05:36:42.877Z,16.30
2022-12-11T05:39:11.971Z,15.83
2022-12-11T05:41:38.703Z,16.00
2022-12-11T05:44:05.696Z,17.13
2022-12-11T05:46:32.767Z,16.10
2022-12-11T05:49:01.671Z,18.90
2022-12-11T05:51:29.890Z,18.27
2022-12-11T05:53:57.837Z,17.73
2022-12-11T05:56:27.638Z,17.70
2022-12-11T05:58:55.889Z,17.50
2022-12-11T06:01:32.731Z,18.87
2022-12-11T06:03:59.788Z,19.17
2022-12-11T06:06:28.060Z,19.77
2022-12-11T06:08:56.920Z,20.00
2022-12-11T06:11:24.804Z,21.50
2022-12-11T06:13:52.733Z,20.90
2022-12-11T06:16:19.925Z,22.60
2022-12-11T06:18:47.505Z,22.80
2022-12-11T06:21:19.919Z,23.80
2022-12-11T06:23:48.617Z,24.53
2022-12-11T06:26:16.664Z,23.50
2022-12-11T06:28:43.386Z,26.47
2022-12-11T06:31:10.843Z,26.50
2022-12-11T06:33:38.125Z,25.53
2022-12-11T06:36:07.273Z,26.10
2022-12-11T06:38:33.980Z,26.30
2022-12-11T06:41:02.768Z,26.83
2022-12-11T06:43:29.557Z,26.67
2022-12-11T06:46:00.675Z,28.07
2022-12-11T06:48:30.415Z,27.80
2022-12-11T06:50:57.869Z,27.27
2022-12-11T06:53:24.638Z,26.80
2022-12-11T06:55:51.342Z,26.60
2022-12-11T06:58:18.038Z,27.70
2022-12-11T07:00:44.772Z,27.23
2022-12-11T07:03:13.933Z,26.30
2022-12-11T07:05:40.739Z,28.27
2022-12-11T07:08:07.657Z,26.00
2022-12-11T07:10:34.381Z,29.17
2022-12-11T07:13:01.094Z,26.40
2022-12-11T07:15:28.506Z,29.17
2022-12-11T07:17:55.253Z,29.10
2022-12-11T07:20:22.035Z,29.60
2022-12-11T07:22:49.174Z,29.33
2022-12-11T07:25:15.964Z,28.70
2022-12-11T07:27:42.828Z,27.53
2022-12-11T07:30:10.851Z,28.40
2022-12-11T07:32:37.925Z,28.77
2022-12-11T07:35:05.564Z,28.50
2022-12-11T07:37:32.246Z,28.70
2022-12-11T07:39:58.935Z,25.47
2022-12-11T07:42:25.745Z,28.93
2022-12-11T07:44:52.387Z,28.40
2022-12-11T07:47:19.291Z,30.10
2022-12-11T07:49:46.008Z,30.47
2022-12-11T07:52:12.770Z,28.63
2022-12-11T07:54:39.566Z,27.00
2022-12-11T07:57:12.305Z,29.87
2022-12-11T07:59:41.857Z,30.00
2022-12-11T08:02:13.153Z,29.63
2022-12-11T08:04:40.237Z,27.13
2022-12-11T08:07:07.045Z,27.27
2022-12-11T08:09:33.877Z,28.27
2022-12-11T08:12:00.731Z,26.57
2022-12-11T08:14:27.483Z,26.10
2022-12-11T08:16:54.283Z,25.73
2022-12-11T08:19:21.134Z,26.40
2022-12-11T08:21:47.913Z,26.43
2022-12-11T08:24:16.423Z,26.57
2022-12-11T08:26:43.238Z,25.27
2022-12-11T08:29:10.257Z,24.83
2022-12-11T08:31:37.000Z,25.23
2022-12-11T08:34:03.849Z,24.57
2022-12-11T08:36:30.611Z,25.40
2022-12-11T08:38:57.636Z,25.07
2022-12-11T08:41:29.420Z,24.63
2022-12-11T08:43:58.474Z,22.50
2022-12-11T08:46:28.298Z,24.23
2022-12-11T08:48:55.824Z,24.67
2022-12-11T08:51:25.146Z,25.20
2022-12-11T08:53:55.419Z,27.07
2022-12-11T08:56:23.789Z,28.70
2022-12-11T08:58:51.552Z,26.67
2022-12-11T09:01:21.670Z,26.80
2022-12-11T09:03:50.252Z,25.30
2022-12-11T09:06:19.792Z,26.47
2022-12-11T09:08:52.149Z,24.47
2022-12-11T09:11:25.685Z,26.57
2022-12-11T09:13:53.421Z,25.77
2022-12-11T09:16:22.421Z,27.00
2022-12-11T09:18:51.549Z,26.40
2022-12-11T09:21:20.598Z,25.97
2022-12-11T09:23:47.792Z,26.20
2022-12-11T09:26:17.332Z,29.07
2022-12-11T09:28:47.039Z,27.57
2022-12-11T09:31:14.088Z,28.53
2022-12-11T09:33:41.356Z,26.10
2022-12-11T09:36:08.513Z,25.63
2022-12-11T09:38:36.564Z,27.10
2022-12-11T09:41:35.927Z,26.73
2022-12-11T09:44:05.738Z,24.63
2022-12-11T09:46:34.538Z,29.33
2022-12-11T09:49:03.876Z,27.87
2022-12-11T09:51:39.522Z,26.20
2022-12-11T09:54:06.579Z,29.80
2022-12-11T09:56:42.427Z,28.57
2022-12-11T09:59:51.066Z,25.63
2022-12-11T10:02:41.062Z,24.03
2022-12-11T10:05:11.286Z,24.13
2022-12-11T10:07:53.115Z,23.30
2022-12-11T10:10:38.181Z,23.23
2022-12-11T10:13:24.051Z,21.60
2022-12-11T10:16:29.522Z,26.30
2022-12-11T10:18:58.085Z,24.67
2022-12-11T10:21:26.408Z,23.00
2022-12-11T10:23:58.488Z,24.50
2022-12-11T10:26:25.467Z,24.83
2022-12-11T10:28:52.277Z,23.80
2022-12-11T10:31:24.891Z,23.40
2022-12-11T10:34:10.136Z,23.13
2022-12-11T10:36:41.968Z,21.60
2022-12-11T10:39:15.711Z,23.93
2022-12-11T10:41:45.175Z,22.30
2022-12-11T10:44:29.828Z,24.70
2022-12-11T10:47:07.100Z,21.57
2022-12-11T10:49:36.435Z,23.40
2022-12-11T10:52:13.210Z,22.30
2022-12-11T10:54:43.522Z,22.30
2022-12-11T10:57:14.374Z,20.77
2022-12-11T10:59:46.287Z,22.50
2022-12-11T11:02:35.917Z,22.40
2022-12-11T11:05:17.513Z,26.70
2022-12-11T11:07:44.317Z,23.20
2022-12-11T11:10:11.212Z,25.47
2022-12-11T11:12:46.893Z,22.70
2022-12-11T11:15:19.765Z,22.23
2022-12-11T11:18:01.092Z,22.77
2022-12-11T11:20:31.080Z,23.43
2022-12-11T11:23:01.568Z,25.13
2022-12-11T11:25:30.829Z,20.77
2022-12-11T11:28:03.672Z,22.50
2022-12-11T11:30:41.881Z,21.40
2022-12-11T11:33:17.702Z,23.20
2022-12-11T11:35:56.528Z,23.10
2022-12-11T11:38:40.963Z,21.47
2022-12-11T11:41:29.309Z,21.07
2022-12-11T11:44:02.501Z,21.13
2022-12-11T11:46:57.142Z,22.20
2022-12-11T11:49:55.680Z,21.63
2022-12-11T11:52:30.878Z,20.70
2022-12-11T11:55:28.105Z,22.57
2022-12-11T11:58:19.379Z,21.87
2022-12-11T12:00:46.172Z,23.30
2022-12-11T12:03:19.040Z,22.13
2022-12-11T12:06:04.480Z,21.10
2022-12-11T12:08:33.948Z,22.53
2022-12-11T12:11:32.138Z,22.10
2022-12-11T12:14:29.167Z,22.90
2022-12-11T12:17:09.623Z,20.73
2022-12-11T12:19:45.104Z,21.10
2022-12-11T12:22:20.578Z,22.27
2022-12-11T12:25:02.489Z,21.63
2022-12-11T12:27:55.793Z,23.40
2022-12-11T12:30:23.915Z,21.47
2022-12-11T12:33:07.494Z,21.73
2022-12-11T12:35:44.667Z,23.07
2022-12-11T12:38:30.262Z,20.57
2022-12-11T12:40:59.805Z,22.63
2022-12-11T12:43:49.779Z,20.97
2022-12-11T12:46:57.613Z,23.00
2022-12-11T12:49:45.652Z,23.23
2022-12-11T12:52:18.768Z,24.07
2022-12-11T12:55:08.976Z,23.30
2022-12-11T12:57:38.560Z,24.23
2022-12-11T13:00:12.879Z,24.47
2022-12-11T13:02:50.994Z,25.50
2022-12-11T13:05:27.561Z,25.00
2022-12-11T13:08:01.641Z,25.93
2022-12-11T13:10:31.335Z,25.80
2022-12-11T13:12:59.142Z,26.20
2022-12-11T13:15:40.819Z,27.67
2022-12-11T13:18:38.262Z,25.43
2022-12-11T13:21:40.997Z,25.57
2022-12-11T13:24:23.967Z,24.87
2022-12-11T13:26:51.584Z,27.33
2022-12-11T13:29:39.709Z,23.30
2022-12-11T13:32:09.593Z,23.20
2022-12-11T13:34:45.206Z,24.77
2022-12-11T13:37:34.886Z,24.10
2022-12-11T13:40:06.661Z,24.70
2022-12-11T13:42:50.758Z,25.30
2022-12-11T13:45:28.442Z,27.10
2022-12-11T13:47:59.523Z,24.40
2022-12-11T13:50:34.578Z,23.10
2022-12-11T13:53:03.073Z,25.00
2022-12-11T13:55:32.796Z,26.63
2022-12-11T13:57:59.783Z,25.10
2022-12-11T14:00:30.408Z,24.73
2022-12-11T14:03:00.482Z,26.63
2022-12-11T14:05:28.472Z,26.80
2022-12-11T14:08:02.108Z,25.77
2022-12-11T14:10:31.928Z,25.27
2022-12-11T14:13:03.470Z,25.70
2022-12-11T14:15:32.178Z,26.73
2022-12-11T14:18:00.185Z,26.97
2022-12-11T14:20:32.652Z,25.33
2022-12-11T14:23:19.771Z,26.20
2022-12-11T14:25:56.832Z,29.00
2022-12-11T14:28:27.565Z,27.57
2022-12-11T14:30:59.189Z,28.10
2022-12-11T14:33:33.831Z,25.60
2022-12-11T14:36:01.517Z,29.70
2022-12-11T14:39:11.153Z,31.27
2022-12-11T14:41:47.385Z,28.23
2022-12-11T14:44:16.838Z,30.93
2022-12-11T14:46:54.523Z,28.87
2022-12-11T14:49:47.766Z,31.00
2022-12-11T14:52:21.503Z,28.47
2022-12-11T14:54:54.159Z,30.30
2022-12-11T14:57:25.563Z,20.77
2022-12-11T14:59:54.905Z,27.63
2022-12-11T15:02:39.599Z,33.30
2022-12-11T15:05:14.683Z,28.50
2022-12-11T15:07:43.791Z,31.47
2022-12-11T15:10:27.091Z,30.50
2022-12-11T15:12:54.674Z,29.47
2022-12-11T15:15:21.538Z,28.50
2022-12-11T15:17:52.869Z,31.07
2022-12-11T15:20:30.365Z,30.90
2022-12-11T15:23:00.703Z,28.80
2022-12-11T15:25:29.800Z,28.60
2022-12-11T15:27:59.727Z,28.50
2022-12-11T15:30:28.540Z,30.87
2022-12-11T15:33:25.243Z,31.07
2022-12-11T15:36:04.227Z,31.57
2022-12-11T15:38:37.679Z,29.70
2022-12-11T15:41:06.068Z,31.53
2022-12-11T15:43:36.905Z,31.07
2022-12-11T15:46:05.321Z,33.50
2022-12-11T15:48:32.109Z,31.87
2022-12-11T15:50:59.019Z,34.40
2022-12-11T15:53:25.928Z,32.40
2022-12-11T15:55:53.395Z,33.70
2022-12-11T15:58:23.199Z,31.80
2022-12-11T16:00:50.684Z,33.50
2022-12-11T16:03:19.616Z,33.37
2022-12-11T16:05:46.907Z,32.50
2022-12-11T16:08:16.536Z,32.97
2022-12-11T16:10:44.776Z,37.07
2022-12-11T16:13:12.895Z,36.33
2022-12-11T16:15:42.483Z,33.60
2022-12-11T16:18:13.038Z,30.63
2022-12-11T16:20:41.723Z,37.37
2022-12-11T16:23:09.481Z,35.23
2022-12-11T16:25:40.904Z,33.93
2022-12-11T16:28:08.809Z,33.80
2022-12-11T16:30:37.152Z,33.97
2022-12-11T16:33:11.753Z,36.53
2022-12-11T16:35:39.910Z,33.90
2022-12-11T16:38:07.810Z,31.97
2022-12-11T16:40:34.715Z,35.40
2022-12-11T16:43:02.820Z,34.33
2022-12-11T16:45:29.617Z,32.93
2022-12-11T16:47:56.418Z,32.73
2022-12-11T16:50:24.051Z,32.10
2022-12-11T16:52:51.107Z,31.47
2022-12-11T16:55:21.208Z,31.60
2022-12-11T16:57:48.437Z,32.13
2022-12-11T17:00:16.599Z,29.83
2022-12-11T17:02:43.655Z,31.07
2022-12-11T17:05:10.932Z,31.83
2022-12-11T17:07:38.033Z,31.53
2022-12-11T17:10:05.242Z,33.37
2022-12-11T17:12:32.249Z,30.17
2022-12-11T17:14:59.109Z,29.80
2022-12-11T17:17:26.004Z,32.77
2022-12-11T17:19:52.915Z,32.47
2022-12-11T17:22:20.043Z,34.17
2022-12-11T17:24:47.017Z,31.90
2022-12-11T17:27:14.028Z,32.03
2022-12-11T17:29:40.886Z,32.80
2022-12-11T17:32:07.775Z,31.33
2022-12-11T17:34:38.095Z,33.60
2022-12-11T17:37:06.098Z,32.70
2022-12-11T17:39:32.883Z,35.17
2022-12-11T17:41:59.857Z,35.80
2022-12-11T17:44:30.373Z,32.37
2022-12-11T17:46:58.267Z,34.47
2022-12-11T17:49:25.559Z,36.23
2022-12-11T17:51:55.480Z,33.97
2022-12-11T17:54:24.249Z,33.87
2022-12-11T17:56:51.361Z,35.00
2022-12-11T17:59:18.460Z,34.30
2022-12-11T18:01:46.108Z,35.33
2022-12-11T18:04:13.739Z,33.63
2022-12-11T18:06:40.883Z,34.60
2022-12-11T18:09:08.058Z,35.27
2022-12-11T18:11:35.661Z,35.73
2022-12-11T18:14:02.934Z,33.50
2022-12-11T18:16:33.082Z,36.97
2022-12-11T18:19:00.524Z,35.30
2022-12-11T18:21:32.039Z,33.37
2022-12-11T18:24:00.321Z,32.40
2022-12-11T18:26:29.010Z,33.80
2022-12-11T18:28:56.388Z,35.80
2022-12-11T18:31:24.410Z,37.40
2022-12-11T18:33:51.769Z,39.77
2022-12-11T18:36:19.635Z,47.13
2022-12-11T18:38:48.093Z,34.33
2022-12-11T18:41:17.194Z,31.43
2022-12-11T18:43:45.239Z,37.93
2022-12-11T18:46:15.510Z,36.70
2022-12-11T18:48:43.992Z,34.53
2022-12-11T18:51:17.632Z,33.67
2022-12-11T18:53:45.132Z,35.93
2022-12-11T18:56:15.087Z,34.23
2022-12-11T18:58:42.242Z,34.53
2022-12-11T19:01:19.278Z,32.83
2022-12-11T19:03:46.896Z,34.17
2022-12-11T19:06:20.433Z,34.40
2022-12-11T19:08:48.576Z,35.50
2022-12-11T19:11:17.765Z,34.57
2022-12-11T19:13:45.417Z,33.13
2022-12-11T19:16:27.152Z,32.70
2022-12-11T19:18:54.300Z,35.67
2022-12-11T19:21:21.882Z,33.47
2022-12-11T19:23:48.890Z,37.30
2022-12-11T19:26:19.257Z,36.87
2022-12-11T19:28:47.440Z,34.60
2022-12-11T19:31:20.797Z,38.30
2022-12-11T19:33:48.024Z,37.57
2022-12-11T19:36:23.659Z,38.27
2022-12-11T19:38:56.469Z,39.70
2022-12-11T19:41:29.423Z,40.33
2022-12-11T19:43:58.535Z,41.70
2022-12-11T19:46:27.161Z,40.90
2022-12-11T19:48:56.683Z,42.77
2022-12-11T19:51:28.640Z,41.27
2022-12-11T19:53:56.472Z,39.83
2022-12-11T19:56:24.162Z,36.77
2022-12-11T19:58:51.418Z,39.97
2022-12-11T20:01:29.393Z,43.70
2022-12-11T20:04:00.123Z,36.17
2022-12-11T20:06:35.671Z,44.97
2022-12-11T20:09:07.663Z,40.73
2022-12-11T20:11:35.247Z,36.00
2022-12-11T20:14:02.490Z,34.77
2022-12-11T20:17:01.607Z,33.60
2022-12-11T20:19:17.024Z,35.10
2022-12-11T20:21:44.311Z,35.90
2022-12-11T20:24:11.565Z,34.97
2022-12-11T20:26:39.232Z,34.67
2022-12-11T20:29:08.519Z,33.33
2022-12-11T20:31:36.964Z,35.77
2022-12-11T20:34:04.925Z,34.77
2022-12-11T20:36:32.448Z,36.40
2022-12-11T20:39:00.235Z,35.90
2022-12-11T20:41:28.110Z,35.50
2022-12-11T20:43:55.342Z,35.10
2022-12-11T20:46:25.125Z,34.60
2022-12-11T20:48:53.487Z,36.67
2022-12-11T20:51:25.736Z,35.40
2022-12-11T20:53:59.270Z,38.70
2022-12-11T20:56:30.075Z,35.97
2022-12-11T20:58:58.446Z,37.90
2022-12-11T21:01:27.805Z,38.60
2022-12-11T21:03:55.273Z,36.63
2022-12-11T21:06:26.122Z,37.80
2022-12-11T21:08:54.294Z,37.10
2022-12-11T21:11:21.659Z,36.03
2022-12-11T21:13:49.248Z,39.00
2022-12-11T21:16:16.395Z,35.93
2022-12-11T21:18:44.915Z,35.10
2022-12-11T21:21:12.671Z,35.13
2022-12-11T21:23:40.278Z,35.17
2022-12-11T21:26:07.898Z,34.20
2022-12-11T21:28:35.722Z,36.93
2022-12-11T21:31:06.962Z,36.30
2022-12-11T21:33:34.648Z,35.70
2022-12-11T21:36:02.659Z,39.50
2022-12-11T21:38:30.191Z,34.33
2022-12-11T21:40:57.417Z,36.50
2022-12-11T21:43:26.609Z,38.47
2022-12-11T21:46:02.075Z,37.10
2022-12-11T21:48:29.900Z,35.43
2022-12-11T21:51:06.217Z,35.33
2022-12-11T21:53:33.830Z,33.47
2022-12-11T21:56:04.282Z,34.53
2022-12-11T21:58:31.821Z,35.00
2022-12-11T22:00:59.182Z,34.77
2022-12-11T22:03:26.059Z,32.73
2022-12-11T22:05:53.470Z,32.40
2022-12-11T22:08:21.159Z,34.73
2022-12-11T22:10:49.255Z,32.00
2022-12-11T22:13:16.638Z,32.87
2022-12-11T22:15:43.987Z,32.60
2022-12-11T22:18:11.195Z,32.17
2022-12-11T22:20:38.258Z,33.57
2022-12-11T22:23:05.609Z,31.67
2022-12-11T22:25:32.832Z,31.23
2022-12-11T22:27:59.849Z,31.17
2022-12-11T22:30:27.061Z,31.77
2022-12-11T22:32:54.237Z,33.33
2022-12-11T22:35:26.879Z,33.83
2022-12-11T22:37:54.518Z,33.33
2022-12-11T22:40:21.714Z,35.87
2022-12-11T22:42:49.059Z,33.67
2022-12-11T22:45:16.088Z,33.00
2022-12-11T22:47:43.287Z,34.40
2022-12-11T22:50:12.030Z,34.00
2022-12-11T22:52:39.228Z,34.10
2022-12-11T22:55:07.163Z,33.33
2022-12-11T22:57:37.165Z,31.40
2022-12-11T23:00:10.538Z,30.03
2022-12-11T23:02:38.383Z,32.63
2022-12-11T23:05:05.835Z,32.97
2022-12-11T23:07:33.229Z,33.87
2022-12-11T23:10:00.006Z,31.83
2022-12-11T23:12:26.821Z,33.50
2022-12-11T23:14:53.639Z,35.93
2022-12-11T23:17:20.407Z,32.43
2022-12-11T23:19:47.511Z,31.83
2022-12-11T23:22:14.434Z,35.87
2022-12-11T23:24:41.498Z,32.93
2022-12-11T23:27:08.430Z,33.43
2022-12-11T23:29:35.326Z,32.27
2022-12-11T23:32:02.272Z,30.47
2022-12-11T23:34:29.046Z,32.00
2022-12-11T23:36:55.831Z,28.87
2022-12-11T23:39:22.872Z,31.67
2022-12-11T23:41:49.827Z,31.47
2022-12-11T23:44:16.622Z,29.80
2022-12-11T23:46:44.923Z,30.03
2022-12-11T23:49:12.026Z,30.40
2022-12-11T23:51:39.381Z,28.80
2022-12-11T23:54:06.120Z,30.67
2022-12-11T23:56:33.018Z,29.30
2022-12-11T23:58:59.760Z,27.13
